sensor_id;sensor_type;location;lat;lon;timestamp;pressure;altitude;pressure_sealevel;temperature;humidity
49473;BME280;67434;50.956;6.918;2023-03-19T00:01:04;100699.09;;;11.83;66.17
49473;BME280;67434;50.956;6.918;2023-03-19T00:03:31;100704.50;;;11.78;66.55
49473;BME280;67434;50.956;6.918;2023-03-19T00:05:56;100695.56;;;11.82;66.48
49473;BME280;67434;50.956;6.918;2023-03-19T00:08:22;100701.25;;;11.81;66.80
49473;BME280;67434;50.956;6.918;2023-03-19T00:10:47;100698.28;;;11.87;66.60
49473;BME280;67434;50.956;6.918;2023-03-19T00:13:13;100693.69;;;11.83;65.98
49473;BME280;67434;50.956;6.918;2023-03-19T00:15:39;100695.56;;;11.82;66.27
49473;BME280;67434;50.956;6.918;2023-03-19T00:18:06;100688.75;;;11.75;66.97
49473;BME280;67434;50.956;6.918;2023-03-19T00:20:33;100693.13;;;11.81;66.12
49473;BME280;67434;50.956;6.918;2023-03-19T00:22:59;100699.91;;;11.88;66.41
49473;BME280;67434;50.956;6.918;2023-03-19T00:25:25;100696.91;;;11.80;66.67
49473;BME280;67434;50.956;6.918;2023-03-19T00:27:51;100695.50;;;11.72;66.98
49473;BME280;67434;50.956;6.918;2023-03-19T00:30:20;100694.38;;;11.58;68.04
49473;BME280;67434;50.956;6.918;2023-03-19T00:32:45;100694.91;;;11.55;68.32
49473;BME280;67434;50.956;6.918;2023-03-19T00:35:11;100697.56;;;11.50;69.13
49473;BME280;67434;50.956;6.918;2023-03-19T00:37:36;100700.22;;;11.40;68.64
49473;BME280;67434;50.956;6.918;2023-03-19T00:40:02;100691.53;;;11.33;68.79
49473;BME280;67434;50.956;6.918;2023-03-19T00:42:29;100692.53;;;11.16;69.38
49473;BME280;67434;50.956;6.918;2023-03-19T00:44:54;100696.25;;;11.05;69.27
49473;BME280;67434;50.956;6.918;2023-03-19T00:47:21;100696.25;;;11.05;69.15
49473;BME280;67434;50.956;6.918;2023-03-19T00:49:46;100695.06;;;10.91;69.23
49473;BME280;67434;50.956;6.918;2023-03-19T00:52:12;100696.16;;;10.90;69.33
49473;BME280;67434;50.956;6.918;2023-03-19T00:54:37;100700.41;;;10.81;69.76
49473;BME280;67434;50.956;6.918;2023-03-19T00:57:03;100700.31;;;10.71;70.48
49473;BME280;67434;50.956;6.918;2023-03-19T00:59:28;100697.84;;;10.64;70.54
49473;BME280;67434;50.956;6.918;2023-03-19T01:01:54;100699.69;;;10.58;70.59
49473;BME280;67434;50.956;6.918;2023-03-19T01:04:19;100701.06;;;10.61;70.50
49473;BME280;67434;50.956;6.918;2023-03-19T01:06:44;100699.63;;;10.53;70.76
49473;BME280;67434;50.956;6.918;2023-03-19T01:09:10;100697.66;;;10.44;71.10
49473;BME280;67434;50.956;6.918;2023-03-19T01:11:35;100693.53;;;10.36;71.41
49473;BME280;67434;50.956;6.918;2023-03-19T01:14:01;100702.66;;;10.30;72.02
49473;BME280;67434;50.956;6.918;2023-03-19T01:16:27;100702.63;;;10.25;71.76
49473;BME280;67434;50.956;6.918;2023-03-19T01:18:52;100706.84;;;10.43;71.51
49473;BME280;67434;50.956;6.918;2023-03-19T01:21:18;100706.06;;;10.47;70.91
49473;BME280;67434;50.956;6.918;2023-03-19T01:23:44;100702.41;;;10.31;71.52
49473;BME280;67434;50.956;6.918;2023-03-19T01:26:09;100706.56;;;10.17;72.57
49473;BME280;67434;50.956;6.918;2023-03-19T01:28:34;100703.03;;;10.17;72.82
49473;BME280;67434;50.956;6.918;2023-03-19T01:31:04;100705.41;;;10.08;73.12
49473;BME280;67434;50.956;6.918;2023-03-19T01:33:30;100706.72;;;10.06;73.11
49473;BME280;67434;50.956;6.918;2023-03-19T01:35:55;100703.75;;;10.07;73.35
49473;BME280;67434;50.956;6.918;2023-03-19T01:38:23;100693.91;;;9.96;73.54
49473;BME280;67434;50.956;6.918;2023-03-19T01:40:50;100698.63;;;10.06;73.63
49473;BME280;67434;50.956;6.918;2023-03-19T01:45:45;100694.88;;;9.85;74.27
49473;BME280;67434;50.956;6.918;2023-03-19T01:48:44;100696.47;;;10.08;73.49
49473;BME280;67434;50.956;6.918;2023-03-19T01:51:14;100695.50;;;10.19;73.04
49473;BME280;67434;50.956;6.918;2023-03-19T01:53:45;100689.22;;;10.13;73.26
49473;BME280;67434;50.956;6.918;2023-03-19T01:56:15;100691.88;;;10.08;73.71
49473;BME280;67434;50.956;6.918;2023-03-19T01:58:43;100688.69;;;10.11;73.53
49473;BME280;67434;50.956;6.918;2023-03-19T02:01:10;100685.28;;;10.21;73.40
49473;BME280;67434;50.956;6.918;2023-03-19T02:03:37;100684.22;;;10.22;73.10
49473;BME280;67434;50.956;6.918;2023-03-19T02:06:04;100685.03;;;10.22;73.36
49473;BME280;67434;50.956;6.918;2023-03-19T02:08:31;100683.75;;;10.30;73.13
49473;BME280;67434;50.956;6.918;2023-03-19T02:10:57;100691.84;;;10.30;73.30
49473;BME280;67434;50.956;6.918;2023-03-19T02:13:25;100684.91;;;10.39;73.19
49473;BME280;67434;50.956;6.918;2023-03-19T02:15:52;100689.06;;;10.47;72.91
49473;BME280;67434;50.956;6.918;2023-03-19T02:18:18;100690.41;;;10.49;72.70
49473;BME280;67434;50.956;6.918;2023-03-19T02:21:03;100685.88;;;10.55;72.64
49473;BME280;67434;50.956;6.918;2023-03-19T02:26:14;100689.44;;;10.60;72.66
49473;BME280;67434;50.956;6.918;2023-03-19T02:28:43;100688.31;;;10.56;72.88
49473;BME280;67434;50.956;6.918;2023-03-19T02:31:10;100682.66;;;10.58;73.15
49473;BME280;67434;50.956;6.918;2023-03-19T02:33:36;100684.78;;;10.56;73.07
49473;BME280;67434;50.956;6.918;2023-03-19T02:36:04;100681.34;;;10.65;72.67
49473;BME280;67434;50.956;6.918;2023-03-19T02:38:33;100683.06;;;10.77;72.54
49473;BME280;67434;50.956;6.918;2023-03-19T02:41:01;100683.81;;;10.72;72.65
49473;BME280;67434;50.956;6.918;2023-03-19T02:43:30;100684.13;;;10.76;72.68
49473;BME280;67434;50.956;6.918;2023-03-19T02:45:56;100694.19;;;10.80;72.81
49473;BME280;67434;50.956;6.918;2023-03-19T02:48:22;100690.09;;;10.78;72.77
49473;BME280;67434;50.956;6.918;2023-03-19T02:50:48;100694.19;;;10.80;72.67
49473;BME280;67434;50.956;6.918;2023-03-19T02:53:13;100692.59;;;10.84;72.45
49473;BME280;67434;50.956;6.918;2023-03-19T02:55:40;100695.88;;;10.91;71.84
49473;BME280;67434;50.956;6.918;2023-03-19T02:58:06;100696.19;;;10.95;71.76
49473;BME280;67434;50.956;6.918;2023-03-19T03:00:31;100691.56;;;10.90;72.02
49473;BME280;67434;50.956;6.918;2023-03-19T03:02:57;100692.63;;;10.89;72.31
49473;BME280;67434;50.956;6.918;2023-03-19T03:05:22;100701.56;;;10.90;72.06
49473;BME280;67434;50.956;6.918;2023-03-19T03:07:47;100692.09;;;10.92;72.06
49473;BME280;67434;50.956;6.918;2023-03-19T03:10:14;100688.34;;;10.99;71.83
49473;BME280;67434;50.956;6.918;2023-03-19T03:12:40;100687.53;;;10.98;71.67
49473;BME280;67434;50.956;6.918;2023-03-19T03:15:06;100679.69;;;10.96;71.78
49473;BME280;67434;50.956;6.918;2023-03-19T03:17:35;100689.13;;;10.94;71.94
49473;BME280;67434;50.956;6.918;2023-03-19T03:20:03;100684.00;;;10.92;71.79
49473;BME280;67434;50.956;6.918;2023-03-19T03:22:28;100690.25;;;10.98;71.82
49473;BME280;67434;50.956;6.918;2023-03-19T03:24:53;100690.81;;;11.05;71.43
49473;BME280;67434;50.956;6.918;2023-03-19T03:27:19;100695.41;;;11.00;71.76
49473;BME280;67434;50.956;6.918;2023-03-19T03:29:44;100691.84;;;10.94;71.92
49473;BME280;67434;50.956;6.918;2023-03-19T03:32:10;100695.88;;;10.91;72.03
49473;BME280;67434;50.956;6.918;2023-03-19T03:34:35;100699.69;;;10.95;72.00
49473;BME280;67434;50.956;6.918;2023-03-19T03:37:01;100701.56;;;10.90;72.26
49473;BME280;67434;50.956;6.918;2023-03-19T03:39:26;100706.94;;;10.85;71.92
49473;BME280;67434;50.956;6.918;2023-03-19T03:41:52;100705.03;;;10.85;72.07
49473;BME280;67434;50.956;6.918;2023-03-19T03:44:18;100707.19;;;10.83;72.57
49473;BME280;67434;50.956;6.918;2023-03-19T03:46:43;100708.00;;;10.84;72.16
49473;BME280;67434;50.956;6.918;2023-03-19T03:49:08;100714.78;;;10.86;72.01
49473;BME280;67434;50.956;6.918;2023-03-19T03:51:34;100722.38;;;10.89;71.67
49473;BME280;67434;50.956;6.918;2023-03-19T03:54:00;100718.03;;;10.88;71.73
49473;BME280;67434;50.956;6.918;2023-03-19T03:56:25;100722.94;;;10.91;71.42
49473;BME280;67434;50.956;6.918;2023-03-19T03:58:51;100713.16;;;10.85;71.82
49473;BME280;67434;50.956;6.918;2023-03-19T04:01:17;100717.72;;;10.80;71.98
49473;BME280;67434;50.956;6.918;2023-03-19T04:03:43;100719.78;;;10.73;72.19
49473;BME280;67434;50.956;6.918;2023-03-19T04:06:14;100719.47;;;10.64;72.33
49473;BME280;67434;50.956;6.918;2023-03-19T04:08:41;100719.13;;;10.55;72.58
49473;BME280;67434;50.956;6.918;2023-03-19T04:11:07;100708.91;;;10.62;72.20
49473;BME280;67434;50.956;6.918;2023-03-19T04:13:33;100722.13;;;10.59;72.60
49473;BME280;67434;50.956;6.918;2023-03-19T04:16:03;100725.00;;;10.47;72.78
49473;BME280;67434;50.956;6.918;2023-03-19T04:18:29;100726.63;;;10.48;72.78
49473;BME280;67434;50.956;6.918;2023-03-19T04:20:56;100723.63;;;10.45;72.91
49473;BME280;67434;50.956;6.918;2023-03-19T04:23:23;100731.66;;;10.40;73.11
49473;BME280;67434;50.956;6.918;2023-03-19T04:25:49;100729.88;;;10.23;73.45
49473;BME280;67434;50.956;6.918;2023-03-19T04:28:15;100727.19;;;10.23;73.38
49473;BME280;67434;50.956;6.918;2023-03-19T04:30:41;100729.63;;;10.25;73.47
49473;BME280;67434;50.956;6.918;2023-03-19T04:33:08;100729.31;;;10.21;73.68
49473;BME280;67434;50.956;6.918;2023-03-19T04:35:35;100742.06;;;10.26;73.38
49473;BME280;67434;50.956;6.918;2023-03-19T04:38:01;100732.88;;;10.27;73.30
49473;BME280;67434;50.956;6.918;2023-03-19T04:40:26;100729.13;;;10.28;73.56
49473;BME280;67434;50.956;6.918;2023-03-19T04:42:52;100738.13;;;10.39;73.13
49473;BME280;67434;50.956;6.918;2023-03-19T04:45:18;100736.88;;;10.46;72.57
49473;BME280;67434;50.956;6.918;2023-03-19T04:47:43;100741.78;;;10.49;72.47
49473;BME280;67434;50.956;6.918;2023-03-19T04:50:09;100739.94;;;10.55;72.37
49473;BME280;67434;50.956;6.918;2023-03-19T04:52:35;100745.59;;;10.53;72.39
49473;BME280;67434;50.956;6.918;2023-03-19T04:55:03;100741.84;;;10.59;72.19
49473;BME280;67434;50.956;6.918;2023-03-19T04:57:28;100750.53;;;10.61;71.95
49473;BME280;67434;50.956;6.918;2023-03-19T04:59:54;100752.75;;;10.70;71.93
49473;BME280;67434;50.956;6.918;2023-03-19T05:02:20;100753.28;;;10.67;71.86
49473;BME280;67434;50.956;6.918;2023-03-19T05:04:46;100755.47;;;10.70;71.61
49473;BME280;67434;50.956;6.918;2023-03-19T05:07:12;100745.16;;;10.67;71.89
49473;BME280;67434;50.956;6.918;2023-03-19T05:09:37;100753.28;;;10.67;71.93
49473;BME280;67434;50.956;6.918;2023-03-19T05:12:03;100753.28;;;10.67;71.78
49473;BME280;67434;50.956;6.918;2023-03-19T05:14:28;100750.59;;;10.72;71.63
49473;BME280;67434;50.956;6.918;2023-03-19T05:16:53;100754.38;;;10.71;71.53
49473;BME280;67434;50.956;6.918;2023-03-19T05:19:19;100759.78;;;10.71;71.85
49473;BME280;67434;50.956;6.918;2023-03-19T05:21:44;100764.16;;;10.77;71.62
49473;BME280;67434;50.956;6.918;2023-03-19T05:24:10;100765.34;;;10.86;71.16
49473;BME280;67434;50.956;6.918;2023-03-19T05:26:35;100772.66;;;10.85;70.81
49473;BME280;67434;50.956;6.918;2023-03-19T05:29:02;100768.56;;;10.83;71.46
49473;BME280;67434;50.956;6.918;2023-03-19T05:31:29;100768.06;;;10.86;70.97
49473;BME280;67434;50.956;6.918;2023-03-19T05:33:55;100770.47;;;10.82;71.07
49473;BME280;67434;50.956;6.918;2023-03-19T05:36:21;100773.69;;;10.79;71.10
49473;BME280;67434;50.956;6.918;2023-03-19T05:38:47;100769.56;;;10.77;71.38
49473;BME280;67434;50.956;6.918;2023-03-19T05:41:12;100775.31;;;10.80;71.58
49473;BME280;67434;50.956;6.918;2023-03-19T05:43:37;100771.28;;;10.83;71.39
49473;BME280;67434;50.956;6.918;2023-03-19T05:46:03;100768.09;;;10.91;71.24
49473;BME280;67434;50.956;6.918;2023-03-19T05:48:28;100773.75;;;10.89;71.13
49473;BME280;67434;50.956;6.918;2023-03-19T05:50:54;100784.03;;;10.87;71.29
49473;BME280;67434;50.956;6.918;2023-03-19T05:53:20;100776.44;;;10.84;71.40
49473;BME280;67434;50.956;6.918;2023-03-19T05:55:46;100790.81;;;10.90;71.33
49473;BME280;67434;50.956;6.918;2023-03-19T05:58:12;100792.72;;;10.94;71.29
49473;BME280;67434;50.956;6.918;2023-03-19T06:00:37;100793.31;;;11.02;70.89
49473;BME280;67434;50.956;6.918;2023-03-19T06:03:03;100793.66;;;11.10;70.89
49473;BME280;67434;50.956;6.918;2023-03-19T06:05:28;100798.88;;;11.17;70.50
49473;BME280;67434;50.956;6.918;2023-03-19T06:07:54;100792.59;;;11.11;70.59
49473;BME280;67434;50.956;6.918;2023-03-19T06:10:20;100799.13;;;11.15;70.55
49473;BME280;67434;50.956;6.918;2023-03-19T06:12:45;100796.19;;;11.22;70.41
49473;BME280;67434;50.956;6.918;2023-03-19T06:15:11;100805.72;;;11.30;70.12
49473;BME280;67434;50.956;6.918;2023-03-19T06:17:36;100799.84;;;11.43;69.58
49473;BME280;67434;50.956;6.918;2023-03-19T06:20:02;100806.91;;;11.44;69.31
49473;BME280;67434;50.956;6.918;2023-03-19T06:22:27;100807.72;;;11.44;69.28
49473;BME280;67434;50.956;6.918;2023-03-19T06:24:53;100804.22;;;11.49;69.24
49473;BME280;67434;50.956;6.918;2023-03-19T06:27:18;100804.28;;;11.54;69.25
49473;BME280;67434;50.956;6.918;2023-03-19T06:29:43;100809.47;;;11.61;68.85
49473;BME280;67434;50.956;6.918;2023-03-19T06:32:09;100811.09;;;11.62;68.65
49473;BME280;67434;50.956;6.918;2023-03-19T06:34:35;100808.38;;;11.62;68.56
49473;BME280;67434;50.956;6.918;2023-03-19T06:37:00;100814.31;;;11.58;68.79
49473;BME280;67434;50.956;6.918;2023-03-19T06:39:26;100812.13;;;11.55;68.80
49473;BME280;67434;50.956;6.918;2023-03-19T06:41:52;100806.47;;;11.57;68.85
49473;BME280;67434;50.956;6.918;2023-03-19T06:44:17;100818.41;;;11.61;68.98
49473;BME280;67434;50.956;6.918;2023-03-19T06:46:43;100817.88;;;11.64;68.59
49473;BME280;67434;50.956;6.918;2023-03-19T06:49:08;100816.53;;;11.67;68.67
49473;BME280;67434;50.956;6.918;2023-03-19T06:51:33;100820.53;;;11.59;69.20
49473;BME280;67434;50.956;6.918;2023-03-19T06:53:59;100823.53;;;11.57;69.34
49473;BME280;67434;50.956;6.918;2023-03-19T06:56:25;100824.34;;;11.58;69.21
49473;BME280;67434;50.956;6.918;2023-03-19T06:58:51;100828.94;;;11.57;69.44
49473;BME280;67434;50.956;6.918;2023-03-19T07:01:16;100828.63;;;11.54;69.60
49473;BME280;67434;50.956;6.918;2023-03-19T07:03:43;100841.09;;;11.55;69.87
49473;BME280;67434;50.956;6.918;2023-03-19T07:06:08;100839.50;;;11.59;69.57
49473;BME280;67434;50.956;6.918;2023-03-19T07:08:33;100841.09;;;11.55;69.63
49473;BME280;67434;50.956;6.918;2023-03-19T07:11:03;100840.78;;;11.51;69.82
49473;BME280;67434;50.956;6.918;2023-03-19T07:13:30;100838.59;;;11.48;70.24
49473;BME280;67434;50.956;6.918;2023-03-19T07:15:57;100846.78;;;11.53;70.06
49473;BME280;67434;50.956;6.918;2023-03-19T07:18:23;100853.00;;;11.54;69.94
49473;BME280;67434;50.956;6.918;2023-03-19T07:20:48;100853.56;;;11.56;69.87
49473;BME280;67434;50.956;6.918;2023-03-19T07:23:14;100853.09;;;11.69;69.33
49473;BME280;67434;50.956;6.918;2023-03-19T07:25:39;100859.56;;;11.63;69.41
49473;BME280;67434;50.956;6.918;2023-03-19T07:28:05;100859.03;;;11.66;69.70
49473;BME280;67434;50.956;6.918;2023-03-19T07:30:30;100864.56;;;11.81;68.98
49473;BME280;67434;50.956;6.918;2023-03-19T07:32:57;100865.41;;;11.87;68.67
49473;BME280;67434;50.956;6.918;2023-03-19T07:35:22;100863.59;;;11.98;68.08
49473;BME280;67434;50.956;6.918;2023-03-19T07:37:48;100869.00;;;11.93;68.49
49473;BME280;67434;50.956;6.918;2023-03-19T07:40:13;100874.47;;;12.03;68.10
49473;BME280;67434;50.956;6.918;2023-03-19T07:42:38;100873.69;;;12.12;67.76
49473;BME280;67434;50.956;6.918;2023-03-19T07:45:04;100860.44;;;12.21;67.58
49473;BME280;67434;50.956;6.918;2023-03-19T07:47:30;100864.84;;;12.32;67.53
49473;BME280;67434;50.956;6.918;2023-03-19T07:49:57;100867.34;;;12.54;66.70
49473;BME280;67434;50.956;6.918;2023-03-19T07:52:23;100875.56;;;12.84;65.86
49473;BME280;67434;50.956;6.918;2023-03-19T07:54:48;100861.19;;;12.99;65.33
49473;BME280;67434;50.956;6.918;2023-03-19T07:57:14;100869.91;;;13.06;65.22
49473;BME280;67434;50.956;6.918;2023-03-19T07:59:40;100877.47;;;12.94;65.26
49473;BME280;67434;50.956;6.918;2023-03-19T08:02:07;100878.28;;;12.95;65.27
49473;BME280;67434;50.956;6.918;2023-03-19T08:04:34;100885.34;;;12.91;65.46
49473;BME280;67434;50.956;6.918;2023-03-19T08:06:59;100876.94;;;12.97;65.39
49473;BME280;67434;50.956;6.918;2023-03-19T08:09:25;100876.19;;;13.17;64.72
49473;BME280;67434;50.956;6.918;2023-03-19T08:11:50;100880.81;;;13.32;64.29
49473;BME280;67434;50.956;6.918;2023-03-19T08:14:16;100876.72;;;13.34;64.08
49473;BME280;67434;50.956;6.918;2023-03-19T08:16:47;100877.56;;;13.40;64.08
49473;BME280;67434;50.956;6.918;2023-03-19T08:19:13;100884.63;;;13.46;64.07
49473;BME280;67434;50.956;6.918;2023-03-19T08:21:38;100885.69;;;13.60;63.46
49473;BME280;67434;50.956;6.918;2023-03-19T08:24:04;100883.22;;;13.84;62.37
49473;BME280;67434;50.956;6.918;2023-03-19T08:26:29;100890.50;;;14.04;62.20
49473;BME280;67434;50.956;6.918;2023-03-19T08:28:57;100891.31;;;14.09;61.79
49473;BME280;67434;50.956;6.918;2023-03-19T08:31:22;100880.66;;;14.28;61.35
49473;BME280;67434;50.956;6.918;2023-03-19T08:33:48;100883.94;;;14.20;61.68
49473;BME280;67434;50.956;6.918;2023-03-19T08:36:14;100888.00;;;14.28;61.47
49473;BME280;67434;50.956;6.918;2023-03-19T08:38:40;100890.41;;;14.50;61.17
49473;BME280;67434;50.956;6.918;2023-03-19T08:41:07;100889.22;;;14.66;60.71
49473;BME280;67434;50.956;6.918;2023-03-19T08:43:34;100890.94;;;14.42;61.15
49473;BME280;67434;50.956;6.918;2023-03-19T08:46:01;100896.94;;;14.38;61.63
49473;BME280;67434;50.956;6.918;2023-03-19T08:48:27;100901.31;;;14.29;62.20
49473;BME280;67434;50.956;6.918;2023-03-19T08:50:57;100897.47;;;14.51;61.38
49473;BME280;67434;50.956;6.918;2023-03-19T08:53:24;100895.56;;;14.46;61.60
49473;BME280;67434;50.956;6.918;2023-03-19T08:55:53;100888.75;;;14.49;61.54
49473;BME280;67434;50.956;6.918;2023-03-19T08:58:19;100896.09;;;14.53;61.38
49473;BME280;67434;50.956;6.918;2023-03-19T09:00:45;100893.03;;;14.65;61.27
49473;BME280;67434;50.956;6.918;2023-03-19T09:03:11;100894.03;;;14.79;60.97
49473;BME280;67434;50.956;6.918;2023-03-19T09:05:36;100896.47;;;14.81;60.94
49473;BME280;67434;50.956;6.918;2023-03-19T09:08:02;100894.13;;;14.64;61.39
49473;BME280;67434;50.956;6.918;2023-03-19T09:10:27;100897.47;;;14.35;62.21
49473;BME280;67434;50.956;6.918;2023-03-19T09:12:53;100893.75;;;14.06;63.47
49473;BME280;67434;50.956;6.918;2023-03-19T09:15:18;100898.13;;;13.97;64.01
49473;BME280;67434;50.956;6.918;2023-03-19T09:17:44;100900.03;;;13.96;64.29
49473;BME280;67434;50.956;6.918;2023-03-19T09:20:09;100909.84;;;13.92;64.77
49473;BME280;67434;50.956;6.918;2023-03-19T09:22:35;100910.34;;;13.99;64.54
49473;BME280;67434;50.956;6.918;2023-03-19T09:25:01;100917.41;;;14.16;64.06
49473;BME280;67434;50.956;6.918;2023-03-19T09:27:26;100912.16;;;14.34;63.46
49473;BME280;67434;50.956;6.918;2023-03-19T09:29:53;100907.78;;;14.54;63.00
49473;BME280;67434;50.956;6.918;2023-03-19T09:32:18;100909.38;;;14.60;63.03
49473;BME280;67434;50.956;6.918;2023-03-19T09:34:43;100908.06;;;14.52;62.60
49473;BME280;67434;50.956;6.918;2023-03-19T09:37:09;100918.59;;;14.69;62.46
49473;BME280;67434;50.956;6.918;2023-03-19T09:39:36;100926.94;;;14.83;62.22
49473;BME280;67434;50.956;6.918;2023-03-19T09:44:51;100923.16;;;15.23;60.43
49473;BME280;67434;50.956;6.918;2023-03-19T09:47:25;100924.28;;;15.56;59.95
49473;BME280;67434;50.956;6.918;2023-03-19T09:49:52;100924.44;;;15.75;58.85
49473;BME280;67434;50.956;6.918;2023-03-19T09:52:44;100923.41;;;15.94;58.32
49473;BME280;67434;50.956;6.918;2023-03-19T09:57:48;100918.38;;;16.31;57.38
49473;BME280;67434;50.956;6.918;2023-03-19T10:00:35;100924.56;;;16.41;56.73
49473;BME280;67434;50.956;6.918;2023-03-19T10:16:39;100933.84;;;16.16;57.22
49473;BME280;67434;50.956;6.918;2023-03-19T10:19:05;100923.34;;;16.05;57.54
49473;BME280;67434;50.956;6.918;2023-03-19T10:21:38;100926.75;;;16.15;57.73
49473;BME280;67434;50.956;6.918;2023-03-19T10:24:30;100922.63;;;16.18;57.19
49473;BME280;67434;50.956;6.918;2023-03-19T10:27:08;100932.22;;;16.39;56.56
49473;BME280;67434;50.956;6.918;2023-03-19T10:29:36;100925.47;;;16.32;56.61
49473;BME280;67434;50.956;6.918;2023-03-19T10:34:43;100928.56;;;16.49;56.23
49473;BME280;67434;50.956;6.918;2023-03-19T10:39:41;100928.72;;;16.57;56.23
49473;BME280;67434;50.956;6.918;2023-03-19T10:47:14;100935.88;;;16.96;54.75
49473;BME280;67434;50.956;6.918;2023-03-19T10:49:40;100937.00;;;17.14;55.19
49473;BME280;67434;50.956;6.918;2023-03-19T10:52:17;100937.38;;;17.26;54.15
49473;BME280;67434;50.956;6.918;2023-03-19T10:54:45;100940.16;;;17.40;53.85
49473;BME280;67434;50.956;6.918;2023-03-19T10:57:31;100942.47;;;17.33;53.70
49473;BME280;67434;50.956;6.918;2023-03-19T11:00:05;100941.97;;;17.12;54.51
49473;BME280;67434;50.956;6.918;2023-03-19T11:02:34;100934.09;;;17.05;54.42
49473;BME280;67434;50.956;6.918;2023-03-19T11:05:07;100936.84;;;17.05;54.62
49473;BME280;67434;50.956;6.918;2023-03-19T11:07:43;100937.59;;;17.11;54.68
49473;BME280;67434;50.956;6.918;2023-03-19T11:10:14;100944.38;;;17.32;54.45
49473;BME280;67434;50.956;6.918;2023-03-19T11:12:40;100943.78;;;17.54;54.46
49473;BME280;67434;50.956;6.918;2023-03-19T11:15:20;100943.25;;;17.71;53.60
49473;BME280;67434;50.956;6.918;2023-03-19T11:17:55;100938.53;;;17.90;52.95
49473;BME280;67434;50.956;6.918;2023-03-19T11:22:54;100931.06;;;18.09;52.52
49473;BME280;67434;50.956;6.918;2023-03-19T11:25:33;100933.41;;;18.02;52.01
49473;BME280;67434;50.956;6.918;2023-03-19T11:28:06;100938.53;;;17.90;52.40
49473;BME280;67434;50.956;6.918;2023-03-19T11:36:32;100927.94;;;18.43;52.27
49473;BME280;67434;50.956;6.918;2023-03-19T11:52:47;100931.97;;;19.01;50.96
49473;BME280;67434;50.956;6.918;2023-03-19T11:55:24;100932.53;;;18.76;51.33
49473;BME280;67434;50.956;6.918;2023-03-19T12:06:53;100931.19;;;18.32;53.42
49473;BME280;67434;50.956;6.918;2023-03-19T12:15:37;100915.06;;;18.44;52.97
49473;BME280;67434;50.956;6.918;2023-03-19T12:23:31;100919.81;;;18.80;51.78
49473;BME280;67434;50.956;6.918;2023-03-19T12:25:59;100916.13;;;18.62;51.96
49473;BME280;67434;50.956;6.918;2023-03-19T12:28:40;100915.69;;;18.41;52.93
49473;BME280;67434;50.956;6.918;2023-03-19T12:31:47;100916.97;;;18.16;53.45
49473;BME280;67434;50.956;6.918;2023-03-19T12:34:35;100911.94;;;18.23;53.23
49473;BME280;67434;50.956;6.918;2023-03-19T12:40:06;100916.97;;;18.16;53.34
49473;BME280;67434;50.956;6.918;2023-03-19T12:42:39;100913.88;;;18.23;53.01
49473;BME280;67434;50.956;6.918;2023-03-19T12:45:30;100911.50;;;18.02;53.71
49473;BME280;67434;50.956;6.918;2023-03-19T12:48:08;100915.25;;;18.20;53.66
49473;BME280;67434;50.956;6.918;2023-03-19T12:50:37;100912.44;;;18.39;53.08
49473;BME280;67434;50.956;6.918;2023-03-19T12:53:13;100906.97;;;18.66;52.50
49473;BME280;67434;50.956;6.918;2023-03-19T12:55:46;100910.25;;;18.91;51.68
49473;BME280;67434;50.956;6.918;2023-03-19T13:01:10;100914.59;;;18.69;51.74
49473;BME280;67434;50.956;6.918;2023-03-19T13:03:40;100907.28;;;18.65;51.40
49473;BME280;67434;50.956;6.918;2023-03-19T13:06:18;100911.59;;;18.52;51.78
49473;BME280;67434;50.956;6.918;2023-03-19T13:08:51;100914.56;;;18.42;51.39
49473;BME280;67434;50.956;6.918;2023-03-19T13:11:28;100915.25;;;18.20;52.40
49473;BME280;67434;50.956;6.918;2023-03-19T13:19:15;100921.25;;;17.43;54.09
49473;BME280;67434;50.956;6.918;2023-03-19T13:21:44;100917.19;;;17.41;53.98
49473;BME280;67434;50.956;6.918;2023-03-19T13:24:25;100910.75;;;17.50;53.67
49473;BME280;67434;50.956;6.918;2023-03-19T13:26:52;100903.69;;;17.63;53.77
49473;BME280;67434;50.956;6.918;2023-03-19T13:29:21;100901.84;;;17.77;53.86
49473;BME280;67434;50.956;6.918;2023-03-19T13:31:48;100903.19;;;17.94;53.36
49473;BME280;67434;50.956;6.918;2023-03-19T13:34:20;100915.56;;;18.05;53.59
49473;BME280;67434;50.956;6.918;2023-03-19T13:36:51;100913.53;;;18.10;53.35
49473;BME280;67434;50.956;6.918;2023-03-19T13:39:19;100911.06;;;17.81;55.36
49473;BME280;67434;50.956;6.918;2023-03-19T13:45:16;100909.09;;;17.17;58.26
49473;BME280;67434;50.956;6.918;2023-03-19T13:47:57;100905.63;;;16.93;58.64
49473;BME280;67434;50.956;6.918;2023-03-19T13:52:51;100902.88;;;17.30;58.23
49473;BME280;67434;50.956;6.918;2023-03-19T13:57:57;100900.16;;;17.63;57.35
49473;BME280;67434;50.956;6.918;2023-03-19T14:03:25;100892.31;;;17.75;57.11
49473;BME280;67434;50.956;6.918;2023-03-19T14:05:54;100894.31;;;17.69;56.07
49473;BME280;67434;50.956;6.918;2023-03-19T14:08:28;100899.56;;;17.66;55.53
49473;BME280;67434;50.956;6.918;2023-03-19T14:11:01;100897.38;;;17.81;55.62
49473;BME280;67434;50.956;6.918;2023-03-19T14:13:37;100896.91;;;17.61;55.99
49473;BME280;67434;50.956;6.918;2023-03-19T14:16:14;100899.38;;;17.43;56.28
49473;BME280;67434;50.956;6.918;2023-03-19T14:18:42;100905.00;;;17.33;56.91
49473;BME280;67434;50.956;6.918;2023-03-19T14:21:18;100912.94;;;17.16;57.05
49473;BME280;67434;50.956;6.918;2023-03-19T14:26:56;100907.91;;;16.85;58.23
49473;BME280;67434;50.956;6.918;2023-03-19T14:29:25;100905.84;;;16.77;59.51
49473;BME280;67434;50.956;6.918;2023-03-19T14:31:59;100904.34;;;16.66;60.52
49473;BME280;67434;50.956;6.918;2023-03-19T14:34:38;100899.81;;;16.33;60.77
49473;BME280;67434;50.956;6.918;2023-03-19T14:37:24;100905.06;;;16.05;60.72